Love Valley, North Carolina
Current Conditions -  °F | °C
As of 8:55 AM on Friday 31 Oct 2014 (Local Time) from KSVH Reporting Station
Overcast Overcast  
Wind Chill: 43°   Ceiling: 1800
Heat Index: 46°   Visibility: 10mi
Dew Point: 37°   Wind: 6mph
Humidity: 70%   Direction: 30°NNE
Pressure: 29.97"   Gusts: NA
Location:  35.8306°N, 80.9003°W
Report Text: KSVH 311255Z AUTO 03005KT 10SM OVC018 08/03 A2997 RMK AO2 T00760025
Loading
Personal Weather Stations






























Interactive Weather Map
Tropical Storm Tracking
New forecast layout! Learn more

10-Day Weather Forecast

Advertisements
Track Severe Weather on mobile